sensor_id;sensor_type;location;lat;lon;timestamp;pressure;altitude;pressure_sealevel;temperature;humidity
58223;BME280;44020;50.890;15.796;2023-12-07T00:01:43;97603.66;;;-0.85;96.95
58223;BME280;44020;50.890;15.796;2023-12-07T00:04:11;97602.10;;;-0.85;96.86
58223;BME280;44020;50.890;15.796;2023-12-07T00:06:38;97605.42;;;-0.86;96.78
58223;BME280;44020;50.890;15.796;2023-12-07T00:09:06;97606.95;;;-0.85;97.09
58223;BME280;44020;50.890;15.796;2023-12-07T00:11:33;97601.52;;;-0.83;97.16
58223;BME280;44020;50.890;15.796;2023-12-07T00:14:00;97603.42;;;-0.82;97.14
58223;BME280;44020;50.890;15.796;2023-12-07T00:16:27;97603.82;;;-0.85;97.11
58223;BME280;44020;50.890;15.796;2023-12-07T00:18:55;97608.52;;;-0.85;97.23
58223;BME280;44020;50.890;15.796;2023-12-07T00:21:22;97611.29;;;-0.84;97.29
58223;BME280;44020;50.890;15.796;2023-12-07T00:23:50;97611.27;;;-0.83;97.72
58223;BME280;44020;50.890;15.796;2023-12-07T00:26:17;97611.58;;;-0.81;97.75
58223;BME280;44020;50.890;15.796;2023-12-07T00:28:45;97612.61;;;-0.80;97.51
58223;BME280;44020;50.890;15.796;2023-12-07T00:31:12;97614.16;;;-0.80;97.77
58223;BME280;44020;50.890;15.796;2023-12-07T00:33:40;97611.84;;;-0.78;97.91
58223;BME280;44020;50.890;15.796;2023-12-07T00:36:07;97612.86;;;-0.77;97.85
58223;BME280;44020;50.890;15.796;2023-12-07T00:38:35;97616.65;;;-0.75;98.01
58223;BME280;44020;50.890;15.796;2023-12-07T00:41:03;97615.04;;;-0.74;97.88
58223;BME280;44020;50.890;15.796;2023-12-07T00:43:30;97617.44;;;-0.72;98.02
58223;BME280;44020;50.890;15.796;2023-12-07T00:45:57;97617.41;;;-0.71;98.33
58223;BME280;44020;50.890;15.796;2023-12-07T00:48:25;97621.75;;;-0.70;98.33
58223;BME280;44020;50.890;15.796;2023-12-07T00:50:52;97627.29;;;-0.69;98.34
58223;BME280;44020;50.890;15.796;2023-12-07T00:53:19;97630.92;;;-0.68;98.15
58223;BME280;44020;50.890;15.796;2023-12-07T00:55:46;97626.70;;;-0.67;97.97
58223;BME280;44020;50.890;15.796;2023-12-07T00:58:13;97627.40;;;-0.66;98.56
58223;BME280;44020;50.890;15.796;2023-12-07T01:00:40;97628.75;;;-0.65;98.44
58223;BME280;44020;50.890;15.796;2023-12-07T01:03:07;97629.41;;;-0.64;98.44
58223;BME280;44020;50.890;15.796;2023-12-07T01:05:34;97633.24;;;-0.63;98.79
58223;BME280;44020;50.890;15.796;2023-12-07T01:08:01;97636.17;;;-0.61;98.87
58223;BME280;44020;50.890;15.796;2023-12-07T01:10:28;97639.63;;;-0.60;98.95
58223;BME280;44020;50.890;15.796;2023-12-07T01:12:55;97644.50;;;-0.59;98.79
58223;BME280;44020;50.890;15.796;2023-12-07T01:15:22;97648.50;;;-0.59;98.77
58223;BME280;44020;50.890;15.796;2023-12-07T01:17:49;97653.54;;;-0.58;99.00
58223;BME280;44020;50.890;15.796;2023-12-07T01:20:16;97655.06;;;-0.57;98.98
58223;BME280;44020;50.890;15.796;2023-12-07T01:22:43;97655.04;;;-0.56;98.96
58223;BME280;44020;50.890;15.796;2023-12-07T01:25:12;97655.73;;;-0.55;98.78
58223;BME280;44020;50.890;15.796;2023-12-07T01:27:43;97662.50;;;-0.54;99.22
58223;BME280;44020;50.890;15.796;2023-12-07T01:30:11;97663.88;;;-0.53;98.82
58223;BME280;44020;50.890;15.796;2023-12-07T01:32:38;97666.99;;;-0.52;98.94
58223;BME280;44020;50.890;15.796;2023-12-07T01:35:06;97669.74;;;-0.51;99.15
58223;BME280;44020;50.890;15.796;2023-12-07T01:37:33;97668.85;;;-0.50;99.30
58223;BME280;44020;50.890;15.796;2023-12-07T01:40:00;97665.52;;;-0.49;99.31
58223;BME280;44020;50.890;15.796;2023-12-07T01:42:27;97665.27;;;-0.48;99.17
58223;BME280;44020;50.890;15.796;2023-12-07T01:44:54;97664.60;;;-0.48;99.08
58223;BME280;44020;50.890;15.796;2023-12-07T01:47:21;97666.16;;;-0.47;99.36
58223;BME280;44020;50.890;15.796;2023-12-07T01:49:49;97664.23;;;-0.47;99.49
58223;BME280;44020;50.890;15.796;2023-12-07T01:52:17;97661.44;;;-0.47;99.12
58223;BME280;44020;50.890;15.796;2023-12-07T01:54:44;97661.58;;;-0.46;99.12
58223;BME280;44020;50.890;15.796;2023-12-07T01:57:11;97661.73;;;-0.45;99.25
58223;BME280;44020;50.890;15.796;2023-12-07T01:59:39;97660.69;;;-0.45;99.20
58223;BME280;44020;50.890;15.796;2023-12-07T02:02:07;97662.44;;;-0.46;99.47
58223;BME280;44020;50.890;15.796;2023-12-07T02:04:34;97663.63;;;-0.44;99.22
58223;BME280;44020;50.890;15.796;2023-12-07T02:07:03;97665.52;;;-0.43;99.34
58223;BME280;44020;50.890;15.796;2023-12-07T02:09:31;97668.79;;;-0.41;99.59
58223;BME280;44020;50.890;15.796;2023-12-07T02:11:59;97671.55;;;-0.40;99.78
58223;BME280;44020;50.890;15.796;2023-12-07T02:14:27;97677.63;;;-0.39;99.41
58223;BME280;44020;50.890;15.796;2023-12-07T02:17:10;97678.33;;;-0.39;99.44
58223;BME280;44020;50.890;15.796;2023-12-07T02:20:19;97679.19;;;-0.39;99.85
58223;BME280;44020;50.890;15.796;2023-12-07T02:22:43;97682.33;;;-0.38;99.72
58223;BME280;44020;50.890;15.796;2023-12-07T02:25:14;97683.35;;;-0.37;99.87
58223;BME280;44020;50.890;15.796;2023-12-07T02:27:43;97682.10;;;-0.37;99.70
58223;BME280;44020;50.890;15.796;2023-12-07T02:30:13;97684.36;;;-0.36;99.94
58223;BME280;44020;50.890;15.796;2023-12-07T02:32:43;97679.27;;;-0.35;100.00
58223;BME280;44020;50.890;15.796;2023-12-07T02:35:11;97681.30;;;-0.34;99.99
58223;BME280;44020;50.890;15.796;2023-12-07T02:37:48;97685.84;;;-0.33;99.66
58223;BME280;44020;50.890;15.796;2023-12-07T02:40:23;97687.42;;;-0.33;99.73
58223;BME280;44020;50.890;15.796;2023-12-07T02:42:51;97689.88;;;-0.33;99.89
58223;BME280;44020;50.890;15.796;2023-12-07T02:45:19;97693.02;;;-0.33;99.73
58223;BME280;44020;50.890;15.796;2023-12-07T02:47:47;97694.58;;;-0.33;99.81
58223;BME280;44020;50.890;15.796;2023-12-07T02:50:14;97701.18;;;-0.32;99.76
58223;BME280;44020;50.890;15.796;2023-12-07T02:52:41;97704.15;;;-0.32;99.92
58223;BME280;44020;50.890;15.796;2023-12-07T02:55:09;97704.27;;;-0.31;99.91
58223;BME280;44020;50.890;15.796;2023-12-07T02:57:37;97706.17;;;-0.29;99.92
58223;BME280;44020;50.890;15.796;2023-12-07T03:00:05;97704.06;;;-0.29;99.96
58223;BME280;44020;50.890;15.796;2023-12-07T03:02:37;97707.39;;;-0.29;100.00
58223;BME280;44020;50.890;15.796;2023-12-07T03:05:05;97711.89;;;-0.28;100.00
58223;BME280;44020;50.890;15.796;2023-12-07T03:07:34;97713.45;;;-0.28;99.92
58223;BME280;44020;50.890;15.796;2023-12-07T03:10:01;97712.08;;;-0.29;100.00
58223;BME280;44020;50.890;15.796;2023-12-07T03:12:29;97715.19;;;-0.28;100.00
58223;BME280;44020;50.890;15.796;2023-12-07T03:14:57;97715.00;;;-0.27;100.00
58223;BME280;44020;50.890;15.796;2023-12-07T03:17:24;97719.86;;;-0.26;99.97
58223;BME280;44020;50.890;15.796;2023-12-07T03:19:51;97719.85;;;-0.25;99.99
58223;BME280;44020;50.890;15.796;2023-12-07T03:22:19;97722.77;;;-0.24;100.00
58223;BME280;44020;50.890;15.796;2023-12-07T03:24:50;97727.98;;;-0.23;100.00
58223;BME280;44020;50.890;15.796;2023-12-07T03:27:18;97725.86;;;-0.22;100.00
58223;BME280;44020;50.890;15.796;2023-12-07T03:29:45;97725.48;;;-0.21;100.00
58223;BME280;44020;50.890;15.796;2023-12-07T03:32:12;97721.77;;;-0.18;100.00
58223;BME280;44020;50.890;15.796;2023-12-07T03:34:40;97725.77;;;-0.18;100.00
58223;BME280;44020;50.890;15.796;2023-12-07T03:37:07;97722.93;;;-0.16;100.00
58223;BME280;44020;50.890;15.796;2023-12-07T03:39:34;97725.52;;;-0.15;100.00
58223;BME280;44020;50.890;15.796;2023-12-07T03:42:02;97725.48;;;-0.13;100.00
58223;BME280;44020;50.890;15.796;2023-12-07T03:44:29;97730.86;;;-0.12;100.00
58223;BME280;44020;50.890;15.796;2023-12-07T03:46:57;97735.87;;;-0.11;100.00
58223;BME280;44020;50.890;15.796;2023-12-07T03:49:25;97737.73;;;-0.09;100.00
58223;BME280;44020;50.890;15.796;2023-12-07T03:51:52;97739.83;;;-0.09;100.00
58223;BME280;44020;50.890;15.796;2023-12-07T03:54:19;97742.60;;;-0.08;100.00
58223;BME280;44020;50.890;15.796;2023-12-07T03:56:46;97748.35;;;-0.07;100.00
58223;BME280;44020;50.890;15.796;2023-12-07T03:59:13;97753.04;;;-0.06;100.00
58223;BME280;44020;50.890;15.796;2023-12-07T04:01:41;97754.35;;;-0.03;100.00
58223;BME280;44020;50.890;15.796;2023-12-07T04:04:08;97758.33;;;-0.02;100.00
58223;BME280;44020;50.890;15.796;2023-12-07T04:06:36;97760.78;;;-0.02;100.00
58223;BME280;44020;50.890;15.796;2023-12-07T04:09:03;97761.27;;;0.00;100.00
58223;BME280;44020;50.890;15.796;2023-12-07T04:11:31;97764.03;;;0.01;100.00
58223;BME280;44020;50.890;15.796;2023-12-07T04:13:58;97765.38;;;0.03;100.00
58223;BME280;44020;50.890;15.796;2023-12-07T04:16:26;97768.67;;;0.03;100.00
58223;BME280;44020;50.890;15.796;2023-12-07T04:18:53;97766.92;;;0.04;100.00
58223;BME280;44020;50.890;15.796;2023-12-07T04:21:20;97769.69;;;0.05;100.00
58223;BME280;44020;50.890;15.796;2023-12-07T04:23:48;97773.52;;;0.05;100.00
58223;BME280;44020;50.890;15.796;2023-12-07T04:26:15;97777.85;;;0.06;100.00
58223;BME280;44020;50.890;15.796;2023-12-07T04:28:42;97781.14;;;0.07;100.00
58223;BME280;44020;50.890;15.796;2023-12-07T04:31:09;97786.05;;;0.07;100.00
58223;BME280;44020;50.890;15.796;2023-12-07T04:33:36;97790.58;;;0.07;100.00
58223;BME280;44020;50.890;15.796;2023-12-07T04:36:04;97789.88;;;0.07;100.00
58223;BME280;44020;50.890;15.796;2023-12-07T04:38:31;97794.23;;;0.07;100.00
58223;BME280;44020;50.890;15.796;2023-12-07T04:40:59;97796.52;;;0.07;100.00
58223;BME280;44020;50.890;15.796;2023-12-07T04:43:26;97798.79;;;0.07;100.00
58223;BME280;44020;50.890;15.796;2023-12-07T04:45:52;97799.50;;;0.07;100.00
58223;BME280;44020;50.890;15.796;2023-12-07T04:48:20;97801.91;;;0.08;100.00
58223;BME280;44020;50.890;15.796;2023-12-07T04:50:47;97803.48;;;0.08;100.00
58223;BME280;44020;50.890;15.796;2023-12-07T04:53:14;97799.98;;;0.08;100.00
58223;BME280;44020;50.890;15.796;2023-12-07T04:55:41;97803.81;;;0.08;100.00
58223;BME280;44020;50.890;15.796;2023-12-07T04:58:09;97807.31;;;0.08;100.00
58223;BME280;44020;50.890;15.796;2023-12-07T05:00:36;97803.80;;;0.09;100.00
58223;BME280;44020;50.890;15.796;2023-12-07T05:03:04;97809.38;;;0.10;100.00
58223;BME280;44020;50.890;15.796;2023-12-07T05:05:31;97809.75;;;0.09;100.00
58223;BME280;44020;50.890;15.796;2023-12-07T05:07:58;97808.90;;;0.08;100.00
58223;BME280;44020;50.890;15.796;2023-12-07T05:10:25;97813.97;;;0.08;100.00
58223;BME280;44020;50.890;15.796;2023-12-07T05:12:52;97808.92;;;0.07;100.00
58223;BME280;44020;50.890;15.796;2023-12-07T05:15:19;97812.64;;;0.05;100.00
58223;BME280;44020;50.890;15.796;2023-12-07T05:17:46;97812.48;;;0.05;100.00
58223;BME280;44020;50.890;15.796;2023-12-07T05:20:14;97815.45;;;0.04;100.00
58223;BME280;44020;50.890;15.796;2023-12-07T05:22:42;97815.80;;;0.05;100.00
58223;BME280;44020;50.890;15.796;2023-12-07T05:25:09;97818.05;;;0.05;100.00
58223;BME280;44020;50.890;15.796;2023-12-07T05:27:36;97820.70;;;0.05;100.00
58223;BME280;44020;50.890;15.796;2023-12-07T05:30:04;97821.73;;;0.05;100.00
58223;BME280;44020;50.890;15.796;2023-12-07T05:32:32;97822.95;;;0.05;100.00
58223;BME280;44020;50.890;15.796;2023-12-07T05:34:59;97822.73;;;0.06;100.00
58223;BME280;44020;50.890;15.796;2023-12-07T05:37:27;97825.69;;;0.07;100.00
58223;BME280;44020;50.890;15.796;2023-12-07T05:39:54;97827.03;;;0.09;100.00
58223;BME280;44020;50.890;15.796;2023-12-07T05:42:21;97832.23;;;0.11;100.00
58223;BME280;44020;50.890;15.796;2023-12-07T05:44:48;97833.03;;;0.13;100.00
58223;BME280;44020;50.890;15.796;2023-12-07T05:47:15;97830.05;;;0.13;100.00
58223;BME280;44020;50.890;15.796;2023-12-07T05:49:42;97831.29;;;0.13;100.00
58223;BME280;44020;50.890;15.796;2023-12-07T05:52:09;97832.85;;;0.14;100.00
58223;BME280;44020;50.890;15.796;2023-12-07T05:54:38;97830.91;;;0.14;100.00
58223;BME280;44020;50.890;15.796;2023-12-07T05:57:09;97829.85;;;0.14;100.00
58223;BME280;44020;50.890;15.796;2023-12-07T05:59:37;97830.90;;;0.14;100.00
58223;BME280;44020;50.890;15.796;2023-12-07T06:02:09;97835.98;;;0.14;100.00
58223;BME280;44020;50.890;15.796;2023-12-07T06:04:36;97843.98;;;0.15;100.00
58223;BME280;44020;50.890;15.796;2023-12-07T06:07:03;97852.36;;;0.15;100.00
58223;BME280;44020;50.890;15.796;2023-12-07T06:09:30;97854.99;;;0.15;100.00
58223;BME280;44020;50.890;15.796;2023-12-07T06:11:58;97854.65;;;0.15;100.00
58223;BME280;44020;50.890;15.796;2023-12-07T06:14:25;97852.73;;;0.15;100.00
58223;BME280;44020;50.890;15.796;2023-12-07T06:16:52;97856.38;;;0.15;100.00
58223;BME280;44020;50.890;15.796;2023-12-07T06:19:19;97856.04;;;0.16;100.00
58223;BME280;44020;50.890;15.796;2023-12-07T06:21:47;97856.55;;;0.16;100.00
58223;BME280;44020;50.890;15.796;2023-12-07T06:24:14;97858.65;;;0.16;100.00
58223;BME280;44020;50.890;15.796;2023-12-07T06:26:41;97863.90;;;0.16;100.00
58223;BME280;44020;50.890;15.796;2023-12-07T06:29:08;97864.60;;;0.16;100.00
58223;BME280;44020;50.890;15.796;2023-12-07T06:31:35;97868.27;;;0.15;100.00
58223;BME280;44020;50.890;15.796;2023-12-07T06:34:02;97868.44;;;0.15;100.00
58223;BME280;44020;50.890;15.796;2023-12-07T06:36:29;97875.47;;;0.14;100.00
58223;BME280;44020;50.890;15.796;2023-12-07T06:38:56;97873.71;;;0.14;100.00
58223;BME280;44020;50.890;15.796;2023-12-07T06:41:24;97878.80;;;0.14;100.00
58223;BME280;44020;50.890;15.796;2023-12-07T06:43:51;97884.05;;;0.13;100.00
58223;BME280;44020;50.890;15.796;2023-12-07T06:46:18;97887.86;;;0.14;100.00
58223;BME280;44020;50.890;15.796;2023-12-07T06:48:45;97891.02;;;0.14;100.00
58223;BME280;44020;50.890;15.796;2023-12-07T06:51:12;97889.95;;;0.15;100.00
58223;BME280;44020;50.890;15.796;2023-12-07T06:53:41;97892.02;;;0.16;100.00
58223;BME280;44020;50.890;15.796;2023-12-07T06:56:08;97893.03;;;0.17;100.00
58223;BME280;44020;50.890;15.796;2023-12-07T06:58:35;97892.34;;;0.17;100.00
58223;BME280;44020;50.890;15.796;2023-12-07T07:01:03;97893.20;;;0.17;100.00
58223;BME280;44020;50.890;15.796;2023-12-07T07:03:30;97895.99;;;0.17;100.00
58223;BME280;44020;50.890;15.796;2023-12-07T07:05:57;97896.34;;;0.17;100.00
58223;BME280;44020;50.890;15.796;2023-12-07T07:08:25;97899.30;;;0.17;100.00
58223;BME280;44020;50.890;15.796;2023-12-07T07:10:52;97902.27;;;0.17;100.00
58223;BME280;44020;50.890;15.796;2023-12-07T07:13:20;97902.63;;;0.17;100.00
58223;BME280;44020;50.890;15.796;2023-12-07T07:15:47;97905.10;;;0.17;100.00
58223;BME280;44020;50.890;15.796;2023-12-07T07:18:17;97905.79;;;0.17;100.00
58223;BME280;44020;50.890;15.796;2023-12-07T07:20:44;97910.33;;;0.17;100.00
58223;BME280;44020;50.890;15.796;2023-12-07T07:23:12;97910.14;;;0.17;100.00
58223;BME280;44020;50.890;15.796;2023-12-07T07:25:39;97912.04;;;0.18;100.00
58223;BME280;44020;50.890;15.796;2023-12-07T07:28:06;97914.13;;;0.19;100.00
58223;BME280;44020;50.890;15.796;2023-12-07T07:30:34;97913.54;;;0.21;100.00
58223;BME280;44020;50.890;15.796;2023-12-07T07:33:02;97911.09;;;0.22;100.00
58223;BME280;44020;50.890;15.796;2023-12-07T07:35:28;97912.12;;;0.23;100.00
58223;BME280;44020;50.890;15.796;2023-12-07T07:37:55;97913.48;;;0.24;100.00
58223;BME280;44020;50.890;15.796;2023-12-07T07:40:23;97915.37;;;0.25;100.00
58223;BME280;44020;50.890;15.796;2023-12-07T07:42:52;97913.08;;;0.26;100.00
58223;BME280;44020;50.890;15.796;2023-12-07T07:45:19;97909.73;;;0.27;100.00
58223;BME280;44020;50.890;15.796;2023-12-07T07:47:46;97903.75;;;0.28;100.00
58223;BME280;44020;50.890;15.796;2023-12-07T07:50:13;97904.77;;;0.29;100.00
58223;BME280;44020;50.890;15.796;2023-12-07T07:52:41;97906.34;;;0.30;100.00
58223;BME280;44020;50.890;15.796;2023-12-07T07:55:10;97904.22;;;0.30;100.00
58223;BME280;44020;50.890;15.796;2023-12-07T07:57:37;97911.49;;;0.33;100.00
58223;BME280;44020;50.890;15.796;2023-12-07T08:00:06;97910.80;;;0.33;100.00
58223;BME280;44020;50.890;15.796;2023-12-07T08:02:35;97906.23;;;0.34;100.00
58223;BME280;44020;50.890;15.796;2023-12-07T08:05:03;97901.66;;;0.35;100.00
58223;BME280;44020;50.890;15.796;2023-12-07T08:07:31;97905.96;;;0.37;100.00
58223;BME280;44020;50.890;15.796;2023-12-07T08:09:58;97905.58;;;0.39;100.00
58223;BME280;44020;50.890;15.796;2023-12-07T08:12:25;97906.95;;;0.40;100.00
58223;BME280;44020;50.890;15.796;2023-12-07T08:14:52;97907.60;;;0.42;100.00
58223;BME280;44020;50.890;15.796;2023-12-07T08:17:20;97911.73;;;0.44;100.00
58223;BME280;44020;50.890;15.796;2023-12-07T08:19:48;97911.19;;;0.45;100.00
58223;BME280;44020;50.890;15.796;2023-12-07T08:22:16;97908.85;;;0.47;100.00
58223;BME280;44020;50.890;15.796;2023-12-07T08:24:43;97910.20;;;0.49;100.00
58223;BME280;44020;50.890;15.796;2023-12-07T08:27:10;97908.54;;;0.52;100.00
58223;BME280;44020;50.890;15.796;2023-12-07T08:29:38;97908.13;;;0.55;100.00
58223;BME280;44020;50.890;15.796;2023-12-07T08:32:05;97911.91;;;0.57;100.00
58223;BME280;44020;50.890;15.796;2023-12-07T08:34:32;97915.69;;;0.59;100.00
58223;BME280;44020;50.890;15.796;2023-12-07T08:36:59;97915.96;;;0.62;100.00
58223;BME280;44020;50.890;15.796;2023-12-07T08:39:27;97915.35;;;0.66;100.00
58223;BME280;44020;50.890;15.796;2023-12-07T08:41:54;97916.30;;;0.69;100.00
58223;BME280;44020;50.890;15.796;2023-12-07T08:44:21;97919.55;;;0.72;100.00
58223;BME280;44020;50.890;15.796;2023-12-07T08:46:49;97918.61;;;0.74;100.00
58223;BME280;44020;50.890;15.796;2023-12-07T08:49:16;97916.96;;;0.77;100.00
58223;BME280;44020;50.890;15.796;2023-12-07T08:51:43;97917.08;;;0.79;100.00
58223;BME280;44020;50.890;15.796;2023-12-07T08:54:10;97923.81;;;0.82;100.00
58223;BME280;44020;50.890;15.796;2023-12-07T08:56:38;97921.64;;;0.85;100.00
58223;BME280;44020;50.890;15.796;2023-12-07T08:59:05;97925.91;;;0.88;100.00
58223;BME280;44020;50.890;15.796;2023-12-07T09:01:32;97921.14;;;0.90;100.00
58223;BME280;44020;50.890;15.796;2023-12-07T09:04:01;97921.74;;;0.94;100.00
58223;BME280;44020;50.890;15.796;2023-12-07T09:06:29;97921.30;;;0.96;100.00
58223;BME280;44020;50.890;15.796;2023-12-07T09:08:56;97925.23;;;1.00;100.00
58223;BME280;44020;50.890;15.796;2023-12-07T09:11:23;97922.38;;;1.02;100.00
58223;BME280;44020;50.890;15.796;2023-12-07T09:13:50;97926.69;;;1.04;100.00
58223;BME280;44020;50.890;15.796;2023-12-07T09:16:18;97924.88;;;1.07;100.00
58223;BME280;44020;50.890;15.796;2023-12-07T09:18:45;97924.11;;;1.09;100.00
58223;BME280;44020;50.890;15.796;2023-12-07T09:21:13;97923.50;;;1.12;100.00
58223;BME280;44020;50.890;15.796;2023-12-07T09:23:40;97926.89;;;1.15;100.00
58223;BME280;44020;50.890;15.796;2023-12-07T09:26:07;97926.64;;;1.18;100.00
58223;BME280;44020;50.890;15.796;2023-12-07T09:28:35;97925.36;;;1.20;100.00
58223;BME280;44020;50.890;15.796;2023-12-07T09:31:02;97927.54;;;1.23;100.00
58223;BME280;44020;50.890;15.796;2023-12-07T09:33:29;97922.52;;;1.28;100.00
58223;BME280;44020;50.890;15.796;2023-12-07T09:35:56;97922.39;;;1.31;100.00
58223;BME280;44020;50.890;15.796;2023-12-07T09:38:23;97921.84;;;1.33;100.00
58223;BME280;44020;50.890;15.796;2023-12-07T09:40:54;97922.43;;;1.36;100.00
58223;BME280;44020;50.890;15.796;2023-12-07T09:43:22;97924.83;;;1.38;100.00
58223;BME280;44020;50.890;15.796;2023-12-07T09:45:51;97926.37;;;1.38;100.00
58223;BME280;44020;50.890;15.796;2023-12-07T09:48:21;97925.31;;;1.39;100.00
58223;BME280;44020;50.890;15.796;2023-12-07T09:50:48;97922.46;;;1.41;100.00
58223;BME280;44020;50.890;15.796;2023-12-07T09:53:15;97916.60;;;1.43;100.00
58223;BME280;44020;50.890;15.796;2023-12-07T09:55:43;97920.43;;;1.44;100.00
58223;BME280;44020;50.890;15.796;2023-12-07T09:58:10;97918.45;;;1.46;99.99
58223;BME280;44020;50.890;15.796;2023-12-07T10:00:39;97917.69;;;1.49;100.00
58223;BME280;44020;50.890;15.796;2023-12-07T10:03:08;97915.67;;;1.51;100.00
58223;BME280;44020;50.890;15.796;2023-12-07T10:05:58;97916.13;;;1.54;99.93
58223;BME280;44020;50.890;15.796;2023-12-07T10:08:31;97914.11;;;1.57;99.95
58223;BME280;44020;50.890;15.796;2023-12-07T10:11:09;97913.10;;;1.61;100.00
58223;BME280;44020;50.890;15.796;2023-12-07T10:13:38;97914.58;;;1.64;99.82
58223;BME280;44020;50.890;15.796;2023-12-07T10:16:24;97915.20;;;1.67;99.65
58223;BME280;44020;50.890;15.796;2023-12-07T10:18:51;97912.86;;;1.69;99.35
58223;BME280;44020;50.890;15.796;2023-12-07T10:21:33;97912.86;;;1.68;99.69
58223;BME280;44020;50.890;15.796;2023-12-07T10:24:01;97911.78;;;1.70;99.64
58223;BME280;44020;50.890;15.796;2023-12-07T10:26:30;97911.73;;;1.71;99.42
58223;BME280;44020;50.890;15.796;2023-12-07T10:28:58;97915.92;;;1.72;99.09
58223;BME280;44020;50.890;15.796;2023-12-07T10:31:26;97915.92;;;1.72;99.11
58223;BME280;44020;50.890;15.796;2023-12-07T10:33:53;97919.73;;;1.73;99.24
58223;BME280;44020;50.890;15.796;2023-12-07T10:36:20;97922.84;;;1.75;98.98
58223;BME280;44020;50.890;15.796;2023-12-07T10:38:48;97923.99;;;1.77;98.88
58223;BME280;44020;50.890;15.796;2023-12-07T10:41:19;97922.23;;;1.77;98.63
58223;BME280;44020;50.890;15.796;2023-12-07T10:43:51;97924.95;;;1.80;98.87
58223;BME280;44020;50.890;15.796;2023-12-07T10:46:20;97924.54;;;1.82;98.66
58223;BME280;44020;50.890;15.796;2023-12-07T10:48:50;97923.83;;;1.82;98.47
58223;BME280;44020;50.890;15.796;2023-12-07T10:51:29;97927.34;;;1.82;98.49
58223;BME280;44020;50.890;15.796;2023-12-07T10:53:57;97923.56;;;1.85;98.60
58223;BME280;44020;50.890;15.796;2023-12-07T10:56:44;97920.02;;;1.85;98.20
58223;BME280;44020;50.890;15.796;2023-12-07T10:59:14;97919.64;;;1.87;98.32
58223;BME280;44020;50.890;15.796;2023-12-07T11:01:43;97919.59;;;1.89;98.37
58223;BME280;44020;50.890;15.796;2023-12-07T11:04:12;97920.62;;;1.89;98.03
58223;BME280;44020;50.890;15.796;2023-12-07T11:06:40;97915.69;;;1.90;98.04
58223;BME280;44020;50.890;15.796;2023-12-07T11:09:13;97913.17;;;1.92;97.64
58223;BME280;44020;50.890;15.796;2023-12-07T11:12:01;97913.75;;;1.96;97.81
58223;BME280;44020;50.890;15.796;2023-12-07T11:14:30;97914.66;;;2.00;97.91
58223;BME280;44020;50.890;15.796;2023-12-07T11:16:57;97913.19;;;2.03;97.53
58223;BME280;44020;50.890;15.796;2023-12-07T11:22:11;97909.57;;;2.11;97.50
58223;BME280;44020;50.890;15.796;2023-12-07T11:24:55;97910.68;;;2.15;97.79
58223;BME280;44020;50.890;15.796;2023-12-07T11:27:26;97906.66;;;2.19;97.67
58223;BME280;44020;50.890;15.796;2023-12-07T11:29:59;97902.11;;;2.24;97.60
58223;BME280;44020;50.890;15.796;2023-12-07T11:32:27;97893.41;;;2.27;97.61
58223;BME280;44020;50.890;15.796;2023-12-07T11:35:01;97894.05;;;2.30;97.27
58223;BME280;44020;50.890;15.796;2023-12-07T11:38:08;97897.38;;;2.30;97.19
58223;BME280;44020;50.890;15.796;2023-12-07T11:40:40;97901.04;;;2.30;96.86
58223;BME280;44020;50.890;15.796;2023-12-07T11:43:16;97898.25;;;2.30;96.86
58223;BME280;44020;50.890;15.796;2023-12-07T11:45:47;97899.47;;;2.30;96.81
58223;BME280;44020;50.890;15.796;2023-12-07T11:48:16;97899.67;;;2.29;96.59
58223;BME280;44020;50.890;15.796;2023-12-07T11:51:08;97895.10;;;2.29;96.63
58223;BME280;44020;50.890;15.796;2023-12-07T11:53:37;97901.88;;;2.31;96.72
58223;BME280;44020;50.890;15.796;2023-12-07T11:56:07;97905.34;;;2.33;96.31
58223;BME280;44020;50.890;15.796;2023-12-07T11:58:35;97906.61;;;2.31;96.23
58223;BME280;44020;50.890;15.796;2023-12-07T12:01:04;97904.72;;;2.30;96.41
58223;BME280;44020;50.890;15.796;2023-12-07T12:03:31;97909.44;;;2.31;96.49
58223;BME280;44020;50.890;15.796;2023-12-07T12:06:05;97906.09;;;2.31;96.05
58223;BME280;44020;50.890;15.796;2023-12-07T12:08:32;97904.90;;;2.31;96.26
58223;BME280;44020;50.890;15.796;2023-12-07T12:11:00;97901.46;;;2.34;96.45
58223;BME280;44020;50.890;15.796;2023-12-07T12:13:34;97895.97;;;2.35;96.47
58223;BME280;44020;50.890;15.796;2023-12-07T12:16:01;97896.44;;;2.37;96.33
58223;BME280;44020;50.890;15.796;2023-12-07T12:18:29;97894.86;;;2.37;96.17
58223;BME280;44020;50.890;15.796;2023-12-07T12:20:56;97896.34;;;2.40;96.01
58223;BME280;44020;50.890;15.796;2023-12-07T12:23:26;97893.27;;;2.42;96.54
58223;BME280;44020;50.890;15.796;2023-12-07T12:25:53;97893.17;;;2.45;96.08
58223;BME280;44020;50.890;15.796;2023-12-07T12:28:21;97887.86;;;2.47;96.09
58223;BME280;44020;50.890;15.796;2023-12-07T12:30:51;97887.43;;;2.48;96.11
58223;BME280;44020;50.890;15.796;2023-12-07T12:33:19;97885.20;;;2.47;96.21
58223;BME280;44020;50.890;15.796;2023-12-07T12:36:04;97887.68;;;2.46;96.13
58223;BME280;44020;50.890;15.796;2023-12-07T12:38:34;97888.58;;;2.46;95.77
58223;BME280;44020;50.890;15.796;2023-12-07T12:41:01;97883.06;;;2.43;95.82
58223;BME280;44020;50.890;15.796;2023-12-07T12:43:31;97881.67;;;2.43;95.90
58223;BME280;44020;50.890;15.796;2023-12-07T12:45:58;97886.10;;;2.41;95.71
58223;BME280;44020;50.890;15.796;2023-12-07T12:48:25;97890.88;;;2.40;95.84
58223;BME280;44020;50.890;15.796;2023-12-07T12:50:53;97893.71;;;2.40;95.73
58223;BME280;44020;50.890;15.796;2023-12-07T12:53:20;97897.35;;;2.40;95.81
58223;BME280;44020;50.890;15.796;2023-12-07T12:55:47;97892.81;;;2.40;95.88
58223;BME280;44020;50.890;15.796;2023-12-07T12:58:14;97893.50;;;2.40;95.84
58223;BME280;44020;50.890;15.796;2023-12-07T13:00:43;97896.14;;;2.40;95.83